createdAt,value
2023-11-26T00:01:54.902Z,33.93
2023-11-26T00:04:21.582Z,33.97
2023-11-26T00:06:48.206Z,33.92
2023-11-26T00:09:14.948Z,34.01
2023-11-26T00:11:41.479Z,34.02
2023-11-26T00:14:08.173Z,33.99
2023-11-26T00:16:38.580Z,34.07
2023-11-26T00:19:05.473Z,34.01
2023-11-26T00:21:33.255Z,34.33
2023-11-26T00:24:00.485Z,34.34
2023-11-26T00:26:27.830Z,34.33
2023-11-26T00:28:55.210Z,34.36
2023-11-26T00:31:22.008Z,34.50
2023-11-26T00:33:51.754Z,34.45
2023-11-26T00:36:24.993Z,34.48
2023-11-26T00:38:51.849Z,34.58
2023-11-26T00:41:18.720Z,34.59
2023-11-26T00:43:45.486Z,34.73
2023-11-26T00:46:12.421Z,34.58
2023-11-26T00:48:39.062Z,34.54
2023-11-26T00:51:05.745Z,34.58
2023-11-26T00:53:35.142Z,34.67
2023-11-26T00:56:02.618Z,34.67
2023-11-26T00:58:29.230Z,34.66
2023-11-26T01:00:55.901Z,34.68
2023-11-26T01:03:22.604Z,34.94
2023-11-26T01:05:49.275Z,34.83
2023-11-26T01:08:15.994Z,35.04
2023-11-26T01:10:42.744Z,35.05
2023-11-26T01:13:09.480Z,34.86
2023-11-26T01:15:38.423Z,34.94
2023-11-26T01:18:05.649Z,34.93
2023-11-26T01:20:32.613Z,35.01
2023-11-26T01:22:59.197Z,35.08
2023-11-26T01:25:25.817Z,35.15
2023-11-26T01:27:52.433Z,35.17
2023-11-26T01:30:19.105Z,35.17
2023-11-26T01:32:45.825Z,35.20
2023-11-26T01:35:12.467Z,35.19
2023-11-26T01:37:42.321Z,35.29
2023-11-26T01:40:10.578Z,35.14
2023-11-26T01:42:37.211Z,35.28
2023-11-26T01:45:04.100Z,35.19
2023-11-26T01:47:31.019Z,35.47
2023-11-26T01:49:57.671Z,35.27
2023-11-26T01:52:24.382Z,35.25
2023-11-26T01:54:51.240Z,35.35
2023-11-26T01:57:18.535Z,35.26
2023-11-26T01:59:45.871Z,35.31
2023-11-26T02:02:12.663Z,35.20
2023-11-26T02:04:39.333Z,35.26
2023-11-26T02:07:06.624Z,35.30
2023-11-26T02:09:34.003Z,35.42
2023-11-26T02:12:00.777Z,35.46
2023-11-26T02:14:28.109Z,35.44
2023-11-26T02:16:55.333Z,35.59
2023-11-26T02:19:34.123Z,35.48
2023-11-26T02:22:02.778Z,35.43
2023-11-26T02:24:47.638Z,35.53
2023-11-26T02:27:15.491Z,35.28
2023-11-26T02:29:42.947Z,35.46
2023-11-26T02:32:10.897Z,35.53
2023-11-26T02:34:37.695Z,35.58
2023-11-26T02:37:04.641Z,35.70
2023-11-26T02:39:31.275Z,35.85
2023-11-26T02:41:59.889Z,35.85
2023-11-26T02:44:27.017Z,36.04
2023-11-26T02:46:53.878Z,35.99
2023-11-26T02:49:21.053Z,36.16
2023-11-26T02:51:47.600Z,35.96
2023-11-26T02:54:14.836Z,36.21
2023-11-26T02:56:47.336Z,36.16
2023-11-26T02:59:14.210Z,36.19
2023-11-26T03:01:41.752Z,36.05
2023-11-26T03:04:10.130Z,36.34
2023-11-26T03:06:37.470Z,36.41
2023-11-26T03:09:20.873Z,36.37
2023-11-26T03:12:05.642Z,36.44
2023-11-26T03:14:32.233Z,36.35
2023-11-26T03:16:59.868Z,36.39
2023-11-26T03:19:26.453Z,36.35
2023-11-26T03:21:55.883Z,36.35
2023-11-26T03:24:22.591Z,36.47
2023-11-26T03:26:49.829Z,36.44
2023-11-26T03:29:16.566Z,36.44
2023-11-26T03:31:43.258Z,36.54
2023-11-26T03:34:10.496Z,36.36
2023-11-26T03:36:38.468Z,36.57
2023-11-26T03:39:05.774Z,36.74
2023-11-26T03:41:32.384Z,36.98
2023-11-26T03:43:59.109Z,36.62
2023-11-26T03:46:25.678Z,36.67
2023-11-26T03:48:53.285Z,36.75
2023-11-26T03:51:24.542Z,36.65
2023-11-26T03:53:51.276Z,36.65
2023-11-26T03:56:18.117Z,36.62
2023-11-26T03:58:45.355Z,36.62
2023-11-26T04:01:13.122Z,36.79
2023-11-26T04:03:40.320Z,36.99
2023-11-26T04:06:07.312Z,36.64
2023-11-26T04:08:34.167Z,36.62
2023-11-26T04:11:00.852Z,36.69
2023-11-26T04:13:30.286Z,36.73
2023-11-26T04:15:58.761Z,36.60
2023-11-26T04:18:29.149Z,36.81
2023-11-26T04:20:56.083Z,36.70
2023-11-26T04:23:23.930Z,36.68
2023-11-26T04:25:50.709Z,36.77
2023-11-26T04:28:17.360Z,36.78
2023-11-26T04:30:43.983Z,36.79
2023-11-26T04:33:10.710Z,36.72
2023-11-26T04:35:38.378Z,36.89
2023-11-26T04:38:05.135Z,36.83
2023-11-26T04:40:31.767Z,37.11
2023-11-26T04:42:58.416Z,37.27
2023-11-26T04:45:25.086Z,37.04
2023-11-26T04:47:52.044Z,36.89
2023-11-26T04:50:20.047Z,37.10
2023-11-26T04:52:46.700Z,37.12
2023-11-26T04:55:13.855Z,37.17
2023-11-26T04:57:40.625Z,37.15
2023-11-26T05:00:07.768Z,37.15
2023-11-26T05:02:34.737Z,37.22
2023-11-26T05:05:02.179Z,37.14
2023-11-26T05:07:29.302Z,37.17
2023-11-26T05:09:56.482Z,37.08
2023-11-26T05:12:23.305Z,37.01
2023-11-26T05:14:50.121Z,37.11
2023-11-26T05:17:17.347Z,36.94
2023-11-26T05:19:44.140Z,37.07
2023-11-26T05:22:10.865Z,36.99
2023-11-26T05:24:39.057Z,37.01
2023-11-26T05:27:06.104Z,37.18
2023-11-26T05:29:32.963Z,37.12
2023-11-26T05:31:59.910Z,37.11
2023-11-26T05:34:26.619Z,37.16
2023-11-26T05:36:53.348Z,37.10
2023-11-26T05:39:20.978Z,37.16
2023-11-26T05:41:47.669Z,37.29
2023-11-26T05:44:14.300Z,37.20
2023-11-26T05:46:47.123Z,37.17
2023-11-26T05:49:13.707Z,37.12
2023-11-26T05:51:40.338Z,37.02
2023-11-26T05:54:07.988Z,37.00
2023-11-26T05:56:34.775Z,37.08
2023-11-26T05:59:01.662Z,37.19
2023-11-26T06:01:28.460Z,36.96
2023-11-26T06:03:55.898Z,36.95
2023-11-26T06:06:22.635Z,37.04
2023-11-26T06:08:49.210Z,36.96
2023-11-26T06:11:15.811Z,36.87
2023-11-26T06:13:42.444Z,36.93
2023-11-26T06:16:09.357Z,36.84
2023-11-26T06:18:36.022Z,36.85
2023-11-26T06:21:02.618Z,36.92
2023-11-26T06:23:29.325Z,36.79
2023-11-26T06:25:55.860Z,37.02
2023-11-26T06:28:22.501Z,37.10
2023-11-26T06:30:49.230Z,36.99
2023-11-26T06:33:15.870Z,36.99
2023-11-26T06:35:42.589Z,37.21
2023-11-26T06:38:09.313Z,37.31
2023-11-26T06:40:37.583Z,37.19
2023-11-26T06:43:04.278Z,37.21
2023-11-26T06:45:30.973Z,37.19
2023-11-26T06:47:57.629Z,37.32
2023-11-26T06:50:24.464Z,37.32
2023-11-26T06:52:51.092Z,37.33
2023-11-26T06:55:17.842Z,37.23
2023-11-26T06:57:44.560Z,37.48
2023-11-26T07:00:12.861Z,37.42
2023-11-26T07:02:39.660Z,37.69
2023-11-26T07:05:07.952Z,37.60
2023-11-26T07:07:34.674Z,37.60
2023-11-26T07:10:01.212Z,38.00
2023-11-26T07:12:30.762Z,37.86
2023-11-26T07:14:57.769Z,37.87
2023-11-26T07:17:26.624Z,37.96
2023-11-26T07:19:54.734Z,37.94
2023-11-26T07:22:22.790Z,37.77
2023-11-26T07:24:50.186Z,37.85
2023-11-26T07:27:17.005Z,37.76
2023-11-26T07:29:43.579Z,38.05
2023-11-26T07:32:10.274Z,38.18
2023-11-26T07:34:36.853Z,38.17
2023-11-26T07:37:05.790Z,38.33
2023-11-26T07:39:36.101Z,38.22
2023-11-26T07:42:02.996Z,38.29
2023-11-26T07:44:30.902Z,38.18
2023-11-26T07:46:57.599Z,38.06
2023-11-26T07:49:24.253Z,38.25
2023-11-26T07:51:50.960Z,38.36
2023-11-26T07:54:25.206Z,38.36
2023-11-26T07:56:52.632Z,38.22
2023-11-26T07:59:19.407Z,38.17
2023-11-26T08:01:51.092Z,38.07
2023-11-26T08:04:18.829Z,38.24
2023-11-26T08:06:49.638Z,38.03
2023-11-26T08:09:16.917Z,38.03
2023-11-26T08:11:46.162Z,37.93
2023-11-26T08:14:13.861Z,37.97
2023-11-26T08:16:41.234Z,37.90
2023-11-26T08:19:13.773Z,37.90
2023-11-26T08:21:43.581Z,37.91
2023-11-26T08:24:15.331Z,37.76
2023-11-26T08:26:42.782Z,38.03
2023-11-26T08:29:11.032Z,38.16
2023-11-26T08:31:40.969Z,38.23
2023-11-26T08:34:08.965Z,38.16
2023-11-26T08:36:37.480Z,38.33
2023-11-26T08:39:06.017Z,38.09
2023-11-26T08:41:32.562Z,38.18
2023-11-26T08:43:59.276Z,38.42
2023-11-26T08:46:28.250Z,38.18
2023-11-26T08:48:55.090Z,38.24
2023-11-26T08:51:21.866Z,38.17
2023-11-26T08:53:48.658Z,38.40
2023-11-26T08:56:15.327Z,38.16
2023-11-26T08:58:41.988Z,38.10
2023-11-26T09:01:08.829Z,38.05
2023-11-26T09:03:38.020Z,37.95
2023-11-26T09:06:05.724Z,38.03
2023-11-26T09:08:32.518Z,37.99
2023-11-26T09:11:00.119Z,37.96
2023-11-26T09:13:30.289Z,37.91
2023-11-26T09:15:57.705Z,37.76
2023-11-26T09:18:24.846Z,37.89
2023-11-26T09:20:51.480Z,37.90
2023-11-26T09:23:18.085Z,37.69
2023-11-26T09:25:44.769Z,37.66
2023-11-26T09:28:11.363Z,37.62
2023-11-26T09:30:38.333Z,37.46
2023-11-26T09:33:05.029Z,37.57
2023-11-26T09:35:31.685Z,37.50
2023-11-26T09:37:58.298Z,37.55
2023-11-26T09:40:24.861Z,37.44
2023-11-26T09:42:53.520Z,37.34
2023-11-26T09:45:20.333Z,37.42
2023-11-26T09:47:47.247Z,37.52
2023-11-26T09:50:14.938Z,37.23
2023-11-26T09:52:41.884Z,37.39
2023-11-26T09:55:10.004Z,36.88
2023-11-26T09:57:38.902Z,36.67
2023-11-26T10:00:07.598Z,37.07
2023-11-26T10:02:34.455Z,36.79
2023-11-26T10:05:01.324Z,36.64
2023-11-26T10:07:38.840Z,36.74
2023-11-26T10:10:14.525Z,36.52
2023-11-26T10:12:51.186Z,36.44
2023-11-26T10:15:17.863Z,36.42
2023-11-26T10:18:00.073Z,36.49
2023-11-26T10:20:27.549Z,36.46
2023-11-26T10:22:54.216Z,36.38
2023-11-26T10:25:21.050Z,36.16
2023-11-26T10:27:49.101Z,36.38
2023-11-26T10:30:33.557Z,36.39
2023-11-26T10:33:08.945Z,36.24
2023-11-26T10:35:55.850Z,36.53
2023-11-26T10:38:35.249Z,36.63
2023-11-26T10:41:04.255Z,36.76
2023-11-26T10:43:39.094Z,36.68
2023-11-26T10:46:12.351Z,36.88
2023-11-26T10:48:42.114Z,37.08
2023-11-26T10:51:29.243Z,37.10
2023-11-26T10:54:06.693Z,37.19
2023-11-26T10:56:38.330Z,37.35
2023-11-26T10:59:08.183Z,37.27
2023-11-26T11:01:36.253Z,37.53
2023-11-26T11:04:04.422Z,37.28
2023-11-26T11:06:31.641Z,37.55
2023-11-26T11:08:58.701Z,37.32
2023-11-26T11:12:05.882Z,37.31
2023-11-26T11:14:32.954Z,37.32
2023-11-26T11:17:00.187Z,37.32
2023-11-26T11:19:52.365Z,37.28
2023-11-26T11:22:19.899Z,37.22
2023-11-26T11:24:46.687Z,37.20
2023-11-26T11:27:13.328Z,37.08
2023-11-26T11:29:40.204Z,37.18
2023-11-26T11:32:06.988Z,37.16
2023-11-26T11:34:33.790Z,37.12
2023-11-26T11:37:02.226Z,37.21
2023-11-26T11:39:52.433Z,37.26
2023-11-26T11:42:28.059Z,37.22
2023-11-26T11:44:56.027Z,37.27
2023-11-26T11:47:43.315Z,37.28
2023-11-26T11:50:11.071Z,37.19
2023-11-26T11:52:39.123Z,37.16
2023-11-26T11:55:30.684Z,37.18
2023-11-26T11:57:57.323Z,37.20
2023-11-26T12:00:24.066Z,37.23
2023-11-26T12:02:51.201Z,37.21
2023-11-26T12:05:28.424Z,37.35
2023-11-26T12:07:59.389Z,37.46
2023-11-26T12:10:27.864Z,37.47
2023-11-26T12:13:06.913Z,37.42
2023-11-26T12:15:34.141Z,37.63
2023-11-26T12:18:01.890Z,37.64
2023-11-26T12:20:29.261Z,37.62
2023-11-26T12:22:57.182Z,37.69
2023-11-26T12:25:24.025Z,37.80
2023-11-26T12:28:04.224Z,37.79
2023-11-26T12:30:31.048Z,37.99
2023-11-26T12:32:58.009Z,37.93
2023-11-26T12:35:28.643Z,38.06
2023-11-26T12:37:57.945Z,38.09
2023-11-26T12:40:24.835Z,38.13
2023-11-26T12:42:51.888Z,38.16
2023-11-26T12:45:19.379Z,38.28
2023-11-26T12:47:56.664Z,38.28
2023-11-26T12:50:24.601Z,38.45
2023-11-26T12:52:51.818Z,38.47
2023-11-26T12:55:18.998Z,38.57
2023-11-26T12:57:46.249Z,38.61
2023-11-26T13:00:14.644Z,38.61
2023-11-26T13:02:43.132Z,38.59
2023-11-26T13:05:30.149Z,38.62
2023-11-26T13:07:57.776Z,38.74
2023-11-26T13:10:47.567Z,38.68
2023-11-26T13:13:33.148Z,38.84
2023-11-26T13:16:01.411Z,38.85
2023-11-26T13:18:29.047Z,38.88
2023-11-26T13:21:02.554Z,38.80
2023-11-26T13:23:30.339Z,38.94
2023-11-26T13:25:58.184Z,38.84
2023-11-26T13:28:25.776Z,38.91
2023-11-26T13:30:53.409Z,38.92
2023-11-26T13:33:22.995Z,39.05
2023-11-26T13:35:52.643Z,39.12
2023-11-26T13:38:21.628Z,39.30
2023-11-26T13:40:49.138Z,39.16
2023-11-26T13:43:25.405Z,39.33
2023-11-26T13:45:52.204Z,39.29
2023-11-26T13:48:24.028Z,39.38
2023-11-26T13:53:18.400Z,39.23
2023-11-26T13:55:45.117Z,39.45
2023-11-26T13:58:11.857Z,39.44
2023-11-26T14:00:39.120Z,39.40
2023-11-26T14:03:06.423Z,39.39
2023-11-26T14:05:33.161Z,39.54
2023-11-26T14:07:59.692Z,39.74
2023-11-26T14:10:31.888Z,39.60
2023-11-26T14:13:02.744Z,39.53
2023-11-26T14:15:30.307Z,39.55
2023-11-26T14:17:57.535Z,39.75
2023-11-26T14:20:24.247Z,39.63
2023-11-26T14:22:54.999Z,39.71
2023-11-26T14:25:22.032Z,39.76
2023-11-26T14:27:51.052Z,39.76
2023-11-26T14:30:19.005Z,39.69
2023-11-26T14:32:48.516Z,39.77
2023-11-26T14:35:15.434Z,39.79
2023-11-26T14:37:42.282Z,39.82
2023-11-26T14:40:14.172Z,40.01
2023-11-26T14:42:42.996Z,40.05
2023-11-26T14:45:13.577Z,40.29
2023-11-26T14:47:43.333Z,39.98
2023-11-26T14:50:10.218Z,40.14
2023-11-26T14:52:37.070Z,40.23
2023-11-26T14:55:04.430Z,40.35
2023-11-26T14:57:31.477Z,40.35
2023-11-26T14:59:59.808Z,40.34
2023-11-26T15:02:28.890Z,40.31
2023-11-26T15:04:56.685Z,40.35
2023-11-26T15:07:23.521Z,40.31
2023-11-26T15:09:50.124Z,40.42
2023-11-26T15:12:17.041Z,40.60
2023-11-26T15:14:43.658Z,40.54
2023-11-26T15:17:10.286Z,40.82
2023-11-26T15:19:40.031Z,40.67
2023-11-26T15:22:09.606Z,40.64
2023-11-26T15:24:38.424Z,40.62
2023-11-26T15:27:06.296Z,40.77
2023-11-26T15:29:34.300Z,40.76
2023-11-26T15:32:07.190Z,40.74
2023-11-26T15:34:35.275Z,40.75
2023-11-26T15:37:02.146Z,40.80
2023-11-26T15:39:29.529Z,40.68
2023-11-26T15:41:57.924Z,40.82
2023-11-26T15:44:25.010Z,40.69
2023-11-26T15:46:52.759Z,40.81
2023-11-26T15:49:19.740Z,40.59
2023-11-26T15:51:46.864Z,40.69
2023-11-26T15:54:13.883Z,40.63
2023-11-26T15:56:40.956Z,40.42
2023-11-26T15:59:07.657Z,40.62
2023-11-26T16:01:34.615Z,40.47
2023-11-26T16:04:02.236Z,40.56
2023-11-26T16:06:29.998Z,40.60
2023-11-26T16:09:00.923Z,40.62
2023-11-26T16:11:29.069Z,40.43
2023-11-26T16:13:56.296Z,40.58
2023-11-26T16:16:23.342Z,40.47
2023-11-26T16:18:52.498Z,40.30
2023-11-26T16:21:19.330Z,40.46
2023-11-26T16:23:45.957Z,40.55
2023-11-26T16:26:12.666Z,40.40
2023-11-26T16:28:39.253Z,40.59
2023-11-26T16:31:07.634Z,40.62
2023-11-26T16:33:54.222Z,40.85
2023-11-26T16:36:22.921Z,40.84
2023-11-26T16:38:49.765Z,40.78
2023-11-26T16:41:18.997Z,40.85
2023-11-26T16:43:48.263Z,40.79
2023-11-26T16:46:15.639Z,41.15
2023-11-26T16:48:43.654Z,41.02
2023-11-26T16:51:11.088Z,41.50
2023-11-26T16:53:38.052Z,41.40
2023-11-26T16:56:08.556Z,41.50
2023-11-26T16:58:35.716Z,41.61
2023-11-26T17:01:07.483Z,41.59
2023-11-26T17:03:34.534Z,41.84
2023-11-26T17:06:02.348Z,41.70
2023-11-26T17:08:29.771Z,41.89
2023-11-26T17:11:00.520Z,41.86
2023-11-26T17:13:27.829Z,41.97
2023-11-26T17:15:54.859Z,42.11
2023-11-26T17:18:22.204Z,42.17
2023-11-26T17:20:49.174Z,42.17
2023-11-26T17:23:17.508Z,42.15
2023-11-26T17:25:46.870Z,42.30
2023-11-26T17:28:15.937Z,42.37
2023-11-26T17:30:43.012Z,42.39
2023-11-26T17:33:10.329Z,42.51
2023-11-26T17:35:37.088Z,42.50
2023-11-26T17:38:04.011Z,42.79
2023-11-26T17:40:30.594Z,42.74
2023-11-26T17:42:57.231Z,42.70
2023-11-26T17:45:23.973Z,42.61
2023-11-26T17:47:51.060Z,42.91
2023-11-26T17:50:17.781Z,42.93
2023-11-26T17:52:50.690Z,43.17
2023-11-26T17:55:24.700Z,43.20
2023-11-26T17:57:51.711Z,43.15
2023-11-26T18:00:19.785Z,43.30
2023-11-26T18:02:46.616Z,43.47
2023-11-26T18:05:13.467Z,43.42
2023-11-26T18:07:40.535Z,43.41
2023-11-26T18:10:07.876Z,43.33
2023-11-26T18:12:34.573Z,43.63
2023-11-26T18:15:01.126Z,43.50
2023-11-26T18:17:27.824Z,43.74
2023-11-26T18:19:55.424Z,43.77
2023-11-26T18:22:22.141Z,43.66
2023-11-26T18:24:48.749Z,43.92
2023-11-26T18:27:15.449Z,43.92
2023-11-26T18:29:42.612Z,43.76
2023-11-26T18:32:09.360Z,43.91
2023-11-26T18:34:36.258Z,43.97
2023-11-26T18:37:03.043Z,44.14
2023-11-26T18:39:29.915Z,44.04
2023-11-26T18:41:56.591Z,44.25
2023-11-26T18:44:23.410Z,44.25
2023-11-26T18:46:50.128Z,44.20
2023-11-26T18:49:16.885Z,44.34
2023-11-26T18:51:49.718Z,43.84
2023-11-26T18:54:16.375Z,44.29
2023-11-26T18:56:43.107Z,44.15
2023-11-26T18:59:10.143Z,44.44
2023-11-26T19:01:37.659Z,44.46
2023-11-26T19:04:04.579Z,44.53
2023-11-26T19:06:31.540Z,44.60
2023-11-26T19:09:04.167Z,44.53
2023-11-26T19:11:31.751Z,44.64
2023-11-26T19:13:59.707Z,44.57
2023-11-26T19:16:27.396Z,44.77
2023-11-26T19:18:54.603Z,44.86
2023-11-26T19:21:21.943Z,44.89
2023-11-26T19:23:49.918Z,44.85
2023-11-26T19:26:17.661Z,45.00
2023-11-26T19:28:45.094Z,45.01
2023-11-26T19:31:29.748Z,45.31
2023-11-26T19:33:56.436Z,45.20
2023-11-26T19:36:24.484Z,45.24
2023-11-26T19:38:52.050Z,45.19
2023-11-26T19:41:20.074Z,45.25
2023-11-26T19:43:47.120Z,45.40
2023-11-26T19:46:15.762Z,45.29
2023-11-26T19:48:44.472Z,45.58
2023-11-26T19:51:17.715Z,45.17
2023-11-26T19:53:45.889Z,45.46
2023-11-26T19:56:13.208Z,45.31
2023-11-26T19:58:39.847Z,45.40
2023-11-26T20:01:08.823Z,45.65
2023-11-26T20:03:36.347Z,45.80
2023-11-26T20:06:03.072Z,45.57
2023-11-26T20:08:29.697Z,45.59
2023-11-26T20:10:56.452Z,45.65
2023-11-26T20:13:23.162Z,45.65
2023-11-26T20:15:49.893Z,45.65
2023-11-26T20:18:16.956Z,45.69
2023-11-26T20:20:43.851Z,45.64
2023-11-26T20:23:14.990Z,45.80
2023-11-26T20:25:41.802Z,45.75
2023-11-26T20:28:09.412Z,45.82
2023-11-26T20:30:39.059Z,45.80
2023-11-26T20:33:08.652Z,45.73
2023-11-26T20:35:35.312Z,45.95
2023-11-26T20:38:02.135Z,45.89
2023-11-26T20:40:28.700Z,46.03
2023-11-26T20:42:55.346Z,45.91
2023-11-26T20:45:22.024Z,46.08
2023-11-26T20:47:48.717Z,45.97
2023-11-26T20:50:15.330Z,45.93
2023-11-26T20:52:42.126Z,45.98
2023-11-26T20:55:17.876Z,46.12
2023-11-26T20:57:44.515Z,46.23
2023-11-26T21:00:11.880Z,46.32
2023-11-26T21:02:38.976Z,46.28
2023-11-26T21:05:08.152Z,45.99
2023-11-26T21:07:35.853Z,46.26
2023-11-26T21:10:02.555Z,46.32
2023-11-26T21:12:29.297Z,46.35
2023-11-26T21:14:56.284Z,46.71
2023-11-26T21:17:23.393Z,46.38
2023-11-26T21:19:50.207Z,46.41
2023-11-26T21:22:22.303Z,46.32
2023-11-26T21:24:52.235Z,46.38
2023-11-26T21:27:19.355Z,46.41
2023-11-26T21:29:47.025Z,46.55
2023-11-26T21:32:15.088Z,46.60
2023-11-26T21:34:45.157Z,46.50
2023-11-26T21:37:13.948Z,46.42
2023-11-26T21:39:42.548Z,46.57
2023-11-26T21:42:09.762Z,46.48
2023-11-26T21:44:36.483Z,46.52
2023-11-26T21:47:03.159Z,46.62
2023-11-26T21:49:29.847Z,46.60
2023-11-26T21:51:56.551Z,46.66
2023-11-26T21:54:23.209Z,46.59
2023-11-26T21:56:49.814Z,46.57
2023-11-26T21:59:16.406Z,46.59
2023-11-26T22:01:43.466Z,46.85
2023-11-26T22:04:10.253Z,46.89
2023-11-26T22:06:37.062Z,46.92
2023-11-26T22:09:04.272Z,46.98
2023-11-26T22:11:31.132Z,46.94
2023-11-26T22:13:57.792Z,46.89
2023-11-26T22:16:24.538Z,47.00
2023-11-26T22:18:51.399Z,46.84
2023-11-26T22:21:19.289Z,46.96
2023-11-26T22:23:46.138Z,46.95
2023-11-26T22:26:13.043Z,47.26
2023-11-26T22:28:40.192Z,46.78
2023-11-26T22:31:07.278Z,46.80
2023-11-26T22:33:33.900Z,46.88
2023-11-26T22:36:00.543Z,46.98
2023-11-26T22:38:27.274Z,46.98
2023-11-26T22:40:53.853Z,47.02
2023-11-26T22:43:21.075Z,46.90
2023-11-26T22:45:47.791Z,47.03
2023-11-26T22:48:19.226Z,47.09
2023-11-26T22:50:52.187Z,46.99
2023-11-26T22:53:22.236Z,47.04
2023-11-26T22:55:51.267Z,47.12
2023-11-26T22:58:17.832Z,47.17
2023-11-26T23:00:44.848Z,47.16
2023-11-26T23:03:11.680Z,47.25
2023-11-26T23:05:38.293Z,47.30
2023-11-26T23:08:05.458Z,47.19
2023-11-26T23:10:32.011Z,47.32
2023-11-26T23:12:58.657Z,47.26
2023-11-26T23:15:25.312Z,47.09
2023-11-26T23:17:52.019Z,47.26
2023-11-26T23:20:21.684Z,47.42
2023-11-26T23:22:48.701Z,47.40
2023-11-26T23:25:15.442Z,47.40
2023-11-26T23:27:42.073Z,47.49
2023-11-26T23:30:08.856Z,47.44
2023-11-26T23:32:35.411Z,47.45
2023-11-26T23:35:02.067Z,47.59
2023-11-26T23:37:28.805Z,47.59
2023-11-26T23:39:55.428Z,47.60
2023-11-26T23:42:22.126Z,47.55
2023-11-26T23:44:49.046Z,47.61
2023-11-26T23:47:15.788Z,47.61
2023-11-26T23:49:42.477Z,47.70
2023-11-26T23:52:09.708Z,47.68
2023-11-26T23:54:36.494Z,47.70
2023-11-26T23:57:03.569Z,47.59
2023-11-26T23:59:30.272Z,47.52
